Time;durP1;ratioP1;P1;durP2;ratioP2;P2;SDS_P1;SDS_P2;PMS_P1;PMS_P2;Temp;Humidity;BMP_temperature;BMP_pressure;BME280_temperature;BME280_humidity;BME280_pressure;Samples;Min_cycle;Max_cycle;Signal;HPM_P1;HPM_P2
2021/05/27 00:00:48;;;;;;;1.30;1.20;;;;;;;12.63;80.94;95699.41;4952591;29;20267;-87
2021/05/27 00:03:14;;;;;;;2.10;1.00;;;;;;;12.54;80.74;95695.34;4952270;29;20223;-87
2021/05/27 00:05:40;;;;;;;1.00;0.90;;;;;;;12.58;80.78;95690.59;4952642;29;20270;-88
2021/05/27 00:08:06;;;;;;;1.70;0.97;;;;;;;12.56;80.47;95690.00;4952758;29;20192;-88
2021/05/27 00:10:33;;;;;;;1.93;0.90;;;;;;;12.49;80.89;95689.16;4952570;29;20762;-87
2021/05/27 00:13:00;;;;;;;0.90;0.90;;;;;;;12.52;81.11;95686.97;4952107;29;20227;-88
2021/05/27 00:15:31;;;;;;;1.10;1.00;;;;;;;12.51;81.81;95693.13;4918267;29;1031012;-87
2021/05/27 00:17:57;;;;;;;2.50;1.10;;;;;;;12.45;81.92;95692.09;4953383;29;20233;-88
2021/05/27 00:20:23;;;;;;;0.83;0.80;;;;;;;12.50;81.27;95680.44;4953540;28;20684;-87
2021/05/27 00:22:50;;;;;;;1.57;0.90;;;;;;;12.45;81.68;95680.97;4953313;29;20221;-88
2021/05/27 00:25:16;;;;;;;1.20;0.90;;;;;;;12.51;81.68;95684.59;4953706;29;20217;-88
2021/05/27 00:27:42;;;;;;;0.90;0.90;;;;;;;12.55;80.29;95690.97;4953088;29;20209;-85
2021/05/27 00:30:10;;;;;;;2.00;0.90;;;;;;;12.56;79.55;95697.75;4953498;29;20209;-87
2021/05/27 00:32:36;;;;;;;0.97;0.90;;;;;;;12.50;80.24;95688.97;4952005;29;20264;-89
2021/05/27 00:35:03;;;;;;;1.07;0.90;;;;;;;12.55;80.06;95690.97;4953856;29;20209;-88
2021/05/27 00:37:29;;;;;;;0.97;0.80;;;;;;;12.54;79.58;95690.19;4952739;29;20677;-89
2021/05/27 00:39:56;;;;;;;1.30;1.00;;;;;;;12.52;79.11;95688.75;4953129;29;20224;-88
2021/05/27 00:42:21;;;;;;;2.37;1.10;;;;;;;12.54;78.90;95689.38;4952400;29;20232;-88
2021/05/27 00:44:58;;;;;;;1.60;0.90;;;;;;;12.56;79.31;95690.78;4953576;29;20348;-88
2021/05/27 00:47:23;;;;;;;0.80;0.80;;;;;;;12.47;78.79;95691.91;4953845;29;20230;-89
2021/05/27 00:49:50;;;;;;;1.07;1.00;;;;;;;12.40;77.24;95693.63;4954792;29;20236;-88
2021/05/27 00:52:16;;;;;;;0.80;0.80;;;;;;;12.40;78.50;95691.84;4954531;29;20221;-88
2021/05/27 00:54:42;;;;;;;0.70;0.70;;;;;;;12.38;77.67;95693.00;4958234;29;20255;-88
2021/05/27 00:57:17;;;;;;;0.80;0.80;;;;;;;12.41;77.86;95703.78;4957529;29;20201;-88
2021/05/27 00:59:43;;;;;;;0.97;0.90;;;;;;;12.41;77.77;95696.03;4959951;29;20290;-88
2021/05/27 01:02:09;;;;;;;0.90;0.90;;;;;;;12.26;77.92;95708.22;4957462;29;20225;-88
2021/05/27 01:04:35;;;;;;;0.97;0.90;;;;;;;12.30;78.04;95701.69;4960209;29;20211;-88
2021/05/27 01:07:02;;;;;;;0.90;0.90;;;;;;;12.25;79.30;95698.84;4960636;28;20200;-89
2021/05/27 01:09:28;;;;;;;0.80;0.80;;;;;;;12.26;78.91;95689.34;4960869;29;20197;-88
2021/05/27 01:11:54;;;;;;;0.80;0.80;;;;;;;12.27;79.23;95696.91;4956328;29;20255;-89
2021/05/27 01:17:01;;;;;;;0.93;0.93;;;;;;;12.25;79.43;95698.84;4955476;29;20205;-88
2021/05/27 01:19:27;;;;;;;0.80;0.80;;;;;;;12.27;78.99;95691.75;4955707;29;20765;-89
2021/05/27 01:21:53;;;;;;;0.80;0.80;;;;;;;12.31;79.73;95692.97;4954428;29;20334;-88
2021/05/27 01:24:20;;;;;;;0.77;0.73;;;;;;;12.32;79.42;95679.06;4955078;29;20602;-88
2021/05/27 01:26:46;;;;;;;2.20;1.17;;;;;;;12.17;82.69;95688.63;4953895;29;20208;-88
2021/05/27 01:29:12;;;;;;;1.33;1.00;;;;;;;12.28;81.15;95708.03;4954852;29;20203;-88
2021/05/27 01:31:38;;;;;;;0.87;0.87;;;;;;;12.28;80.53;95703.66;4955811;29;20680;-87
2021/05/27 01:34:07;;;;;;;1.00;0.90;;;;;;;12.35;80.07;95714.03;4954141;29;20260;-87
2021/05/27 01:36:33;;;;;;;1.03;0.93;;;;;;;12.42;80.21;95720.06;4955178;29;20232;-87
2021/05/27 01:39:00;;;;;;;0.90;0.90;;;;;;;12.44;80.34;95718.91;4955254;29;20715;-88
2021/05/27 01:41:26;;;;;;;0.70;0.70;;;;;;;12.43;79.71;95709.56;4954896;29;20283;-88
2021/05/27 01:43:52;;;;;;;1.13;1.00;;;;;;;12.45;80.01;95705.00;4954642;29;20262;-88
2021/05/27 01:46:18;;;;;;;1.00;0.90;;;;;;;12.31;82.54;95710.25;4954964;29;20208;-88
2021/05/27 01:48:44;;;;;;;0.90;0.90;;;;;;;12.31;81.62;95715.41;4954584;29;20216;-88
2021/05/27 01:51:11;;;;;;;1.07;1.00;;;;;;;12.30;80.74;95718.97;4955125;29;20246;-86
2021/05/27 01:53:37;;;;;;;0.90;0.90;;;;;;;12.28;81.15;95708.81;4954603;29;20228;-88
2021/05/27 01:56:04;;;;;;;1.00;1.00;;;;;;;12.32;81.21;95709.22;4955169;29;20293;-87
2021/05/27 01:58:31;;;;;;;1.10;1.00;;;;;;;12.31;82.19;95711.03;4954124;29;20216;-87
2021/05/27 02:00:57;;;;;;;0.97;0.97;;;;;;;12.28;82.49;95721.72;4954983;29;20568;-87
2021/05/27 02:03:23;;;;;;;1.13;0.80;;;;;;;12.28;80.92;95718.34;4954896;29;20213;-88
2021/05/27 02:05:49;;;;;;;3.57;1.00;;;;;;;12.27;81.70;95720.13;4955015;29;20208;-88
2021/05/27 02:08:20;;;;;;;0.97;0.87;;;;;;;12.33;81.51;95724.53;4955012;29;20284;-86
2021/05/27 02:10:46;;;;;;;1.10;1.00;;;;;;;12.33;81.09;95721.97;4955257;29;20687;-88
2021/05/27 02:13:13;;;;;;;0.80;0.80;;;;;;;12.22;82.64;95716.50;4955107;29;20221;-87
2021/05/27 02:15:39;;;;;;;0.90;0.90;;;;;;;12.28;81.91;95718.34;4955180;29;20546;-88
2021/05/27 02:18:06;;;;;;;0.90;0.90;;;;;;;12.22;82.61;95721.66;4955168;28;20201;-86
2021/05/27 02:20:32;;;;;;;0.90;0.90;;;;;;;12.15;83.80;95713.03;4958747;29;20244;-88
2021/05/27 02:22:58;;;;;;;0.87;0.87;;;;;;;12.12;82.98;95721.16;4957677;28;20228;-88
2021/05/27 02:25:24;;;;;;;1.00;1.00;;;;;;;12.19;82.38;95714.28;4958914;29;20205;-87
2021/05/27 02:27:50;;;;;;;1.33;1.10;;;;;;;12.20;82.43;95721.03;4958374;29;20587;-87
2021/05/27 02:30:18;;;;;;;1.03;1.00;;;;;;;12.21;81.93;95710.53;4956191;29;20201;-87
2021/05/27 02:32:44;;;;;;;1.30;1.20;;;;;;;12.24;82.09;95711.94;4952549;29;20266;-87
2021/05/27 02:35:11;;;;;;;1.20;1.10;;;;;;;12.31;81.15;95723.16;4953851;29;20340;-87
2021/05/27 02:37:37;;;;;;;1.43;1.00;;;;;;;12.33;81.86;95721.97;4954052;29;20669;-87
2021/05/27 02:40:04;;;;;;;1.10;1.00;;;;;;;12.34;81.37;95725.34;4954022;29;20372;-86
2021/05/27 02:42:30;;;;;;;1.23;1.10;;;;;;;12.31;81.45;95729.13;4953558;29;20232;-87
2021/05/27 02:44:56;;;;;;;1.00;1.00;;;;;;;12.19;82.09;95717.66;4953969;29;20209;-87
2021/05/27 02:47:24;;;;;;;0.97;0.97;;;;;;;12.14;82.65;95722.56;4953923;29;20197;-87
2021/05/27 02:49:50;;;;;;;1.30;1.10;;;;;;;12.16;82.43;95723.19;4953950;29;20912;-86
2021/05/27 02:52:16;;;;;;;0.80;0.80;;;;;;;12.20;83.10;95727.00;4953544;28;20307;-88
2021/05/27 02:54:42;;;;;;;2.07;1.10;;;;;;;12.20;82.35;95732.16;4954028;29;20839;-87
2021/05/27 02:57:08;;;;;;;0.90;0.90;;;;;;;12.25;81.15;95737.59;4953891;29;20205;-86
2021/05/27 02:59:34;;;;;;;1.03;1.03;;;;;;;12.26;81.68;95730.63;4953200;29;20279;-87
2021/05/27 03:02:00;;;;;;;1.80;1.20;;;;;;;12.21;81.32;95725.22;4953827;29;20240;-86
2021/05/27 03:04:27;;;;;;;1.30;1.10;;;;;;;12.15;81.42;95729.31;4953522;29;20205;-86
2021/05/27 03:06:53;;;;;;;1.07;0.97;;;;;;;12.18;80.82;95726.38;4953868;29;20624;-87
2021/05/27 03:09:19;;;;;;;1.13;1.03;;;;;;;12.15;81.16;95726.75;4953723;29;20280;-87
2021/05/27 03:11:45;;;;;;;1.30;1.20;;;;;;;12.08;81.07;95728.47;4952950;29;20271;-87
2021/05/27 03:14:11;;;;;;;1.10;1.00;;;;;;;12.09;82.63;95735.22;4953040;29;20664;-86
2021/05/27 03:16:37;;;;;;;1.30;1.20;;;;;;;12.07;83.01;95730.25;4953865;29;20280;-89
2021/05/27 03:19:03;;;;;;;1.23;0.90;;;;;;;12.16;82.38;95737.88;4953402;29;20228;-87
2021/05/27 03:21:30;;;;;;;1.87;1.10;;;;;;;12.13;82.58;95739.03;4953651;29;20211;-88
2021/05/27 03:23:56;;;;;;;1.73;1.30;;;;;;;12.13;83.92;95731.28;4953761;29;20220;-86
2021/05/27 03:26:22;;;;;;;2.10;1.30;;;;;;;12.16;83.94;95732.69;4953980;29;20213;-87
2021/05/27 03:28:48;;;;;;;1.27;1.17;;;;;;;12.17;82.28;95731.72;4953556;29;20204;-87
2021/05/27 03:31:14;;;;;;;1.37;1.10;;;;;;;12.12;82.69;95727.13;4952663;28;20823;-88
2021/05/27 03:33:40;;;;;;;1.20;1.10;;;;;;;12.13;81.93;95722.72;4953040;28;20319;-86
2021/05/27 03:36:07;;;;;;;1.00;1.00;;;;;;;12.11;81.63;95720.38;4953280;29;20208;-86
2021/05/27 03:38:34;;;;;;;1.23;1.13;;;;;;;12.12;81.83;95721.97;4953750;29;20225;-87
2021/05/27 03:41:00;;;;;;;0.90;0.90;;;;;;;12.13;81.79;95722.72;4953534;29;20868;-87
2021/05/27 03:43:26;;;;;;;1.10;1.00;;;;;;;12.05;81.92;95736.56;4953727;29;20280;-87
2021/05/27 03:45:52;;;;;;;1.10;1.00;;;;;;;12.07;81.98;95737.19;4953477;29;20205;-88
2021/05/27 03:48:18;;;;;;;1.20;1.10;;;;;;;12.10;82.15;95740.22;4954053;29;20809;-86
2021/05/27 03:50:44;;;;;;;1.07;1.07;;;;;;;12.17;82.33;95744.63;4953694;29;20205;-88
2021/05/27 03:53:10;;;;;;;1.40;1.30;;;;;;;12.17;82.05;95749.78;4953622;29;20307;-88
2021/05/27 03:55:37;;;;;;;1.47;1.10;;;;;;;12.12;82.07;95749.56;4952953;29;20557;-87
2021/05/27 04:00:41;;;;;;;3.90;1.20;;;;;;;12.13;81.82;95749.34;4955557;29;20304;-87
2021/05/27 04:00:48;;;;;;;1.17;1.07;;;;;;;12.09;81.69;95750.72;4960985;29;20205;-87
2021/05/27 04:03:15;;;;;;;1.33;1.20;;;;;;;12.14;81.19;95745.00;4963981;29;20231;-88
2021/05/27 04:08:25;;;;;;;2.20;1.20;;;;;;;12.16;81.25;95732.69;4964894;29;20246;-89
2021/05/27 04:10:52;;;;;;;2.43;1.20;;;;;;;12.17;81.48;95740.25;4963315;29;20232;-88
2021/05/27 04:13:18;;;;;;;1.07;1.07;;;;;;;12.17;81.71;95727.34;4963061;28;20221;-88
2021/05/27 04:15:44;;;;;;;1.40;1.30;;;;;;;12.13;81.96;95723.53;4959978;29;20248;-89
2021/05/27 04:18:14;;;;;;;1.30;1.20;;;;;;;12.10;82.64;95726.50;4959061;29;20669;-88
2021/05/27 04:20:42;;;;;;;1.30;1.20;;;;;;;12.10;82.44;95742.00;4959236;29;20192;-88
2021/05/27 04:23:10;;;;;;;1.13;1.00;;;;;;;12.08;82.28;95747.34;4959193;29;20738;-88
2021/05/27 04:25:36;;;;;;;4.10;3.70;;;;;;;12.13;82.15;95748.53;4958329;29;20229;-89
2021/05/27 04:28:04;;;;;;;4.10;3.70;;;;;;;12.19;81.63;95753.00;4958923;29;20212;-88
2021/05/27 04:30:31;;;;;;;1.70;1.57;;;;;;;12.18;81.94;95741.88;4957833;29;20208;-88
2021/05/27 04:33:02;;;;;;;1.47;1.37;;;;;;;12.20;82.21;95734.75;4957124;28;20232;-87
2021/05/27 04:35:36;;;;;;;1.60;1.30;;;;;;;12.03;82.50;95735.94;4957886;29;20236;-88
2021/05/27 04:38:06;;;;;;;1.20;1.10;;;;;;;12.03;82.74;95739.31;4957277;29;20209;-89
2021/05/27 04:40:32;;;;;;;1.67;1.50;;;;;;;12.05;82.35;95746.91;4957962;29;20211;-88
2021/05/27 04:42:59;;;;;;;1.10;1.10;;;;;;;11.98;82.68;95757.13;4957483;28;20228;-88
2021/05/27 04:45:26;;;;;;;1.20;1.10;;;;;;;12.04;83.04;95759.00;4958474;29;20197;-88
2021/05/27 04:47:52;;;;;;;1.10;1.10;;;;;;;12.10;82.59;95760.88;4958253;29;20199;-89
2021/05/27 04:50:19;;;;;;;1.30;1.20;;;;;;;12.09;82.77;95758.47;4958279;29;20201;-88
2021/05/27 04:52:45;;;;;;;1.33;1.20;;;;;;;11.96;82.12;95758.28;4957032;29;20252;-88
2021/05/27 04:55:13;;;;;;;8.03;5.80;;;;;;;11.82;83.80;95757.34;4951790;28;20209;-87
2021/05/27 04:57:40;;;;;;;5.30;4.57;;;;;;;11.88;83.10;95759.19;4950465;28;20212;-88
2021/05/27 05:00:09;;;;;;;2.37;2.17;;;;;;;11.98;82.75;95759.72;4951301;29;20421;-89
2021/05/27 05:02:41;;;;;;;2.60;2.30;;;;;;;12.07;82.14;95752.69;4954671;29;20224;-89
2021/05/27 05:05:11;;;;;;;1.30;1.20;;;;;;;12.06;81.40;95754.47;4952606;28;20208;-90
2021/05/27 05:07:39;;;;;;;1.27;1.10;;;;;;;12.01;81.63;95751.59;4954492;29;20248;-89
2021/05/27 05:10:06;;;;;;;1.20;1.10;;;;;;;11.96;81.43;95753.94;4954271;29;20236;-87
2021/05/27 05:12:44;;;;;;;1.37;1.20;;;;;;;12.03;81.38;95762.56;4954303;29;20279;-87
2021/05/27 05:15:11;;;;;;;1.37;1.27;;;;;;;12.03;82.11;95765.13;4954792;29;20216;-87
2021/05/27 05:17:37;;;;;;;1.13;1.00;;;;;;;11.74;82.32;95760.75;4952827;29;20901;-87
2021/05/27 05:20:08;;;;;;;1.27;1.10;;;;;;;11.81;82.96;95770.41;4953230;29;20228;-87
2021/05/27 05:22:34;;;;;;;2.10;1.40;;;;;;;11.86;83.39;95765.53;4953548;29;20276;-87
2021/05/27 05:25:00;;;;;;;1.17;1.10;;;;;;;11.88;83.34;95758.41;4954053;29;20205;-87
2021/05/27 05:27:26;;;;;;;1.23;1.07;;;;;;;11.94;82.33;95758.47;4954289;29;20261;-87
2021/05/27 05:29:52;;;;;;;1.10;1.10;;;;;;;11.73;84.41;95766.94;4953915;29;20711;-88
2021/05/27 05:32:18;;;;;;;1.20;1.10;;;;;;;11.76;83.71;95769.16;4954806;29;20237;-88
2021/05/27 05:34:44;;;;;;;0.97;0.93;;;;;;;11.87;83.04;95772.28;4954354;29;20204;-87
2021/05/27 05:37:11;;;;;;;1.47;1.07;;;;;;;11.92;83.32;95781.09;4948105;29;20374;-87
2021/05/27 05:39:37;;;;;;;1.67;1.20;;;;;;;11.86;84.13;95781.81;4955303;29;20229;-88
2021/05/27 05:42:04;;;;;;;1.17;1.07;;;;;;;11.94;83.62;95794.59;4953950;29;20642;-87
2021/05/27 05:44:30;;;;;;;1.07;1.07;;;;;;;11.95;82.72;95788.44;4953087;28;20212;-88
2021/05/27 05:46:56;;;;;;;2.17;1.30;;;;;;;12.03;82.08;95798.69;4954104;29;20232;-88
2021/05/27 05:49:22;;;;;;;1.20;1.10;;;;;;;12.06;82.51;95787.22;4955542;29;20197;-89
2021/05/27 05:51:48;;;;;;;1.27;1.10;;;;;;;12.08;82.04;95788.63;4954128;29;20217;-87
2021/05/27 05:54:15;;;;;;;1.10;1.00;;;;;;;12.02;83.01;95786.75;4956198;28;20288;-87
2021/05/27 05:56:41;;;;;;;1.27;1.10;;;;;;;12.08;83.09;95790.41;4958197;29;20723;-89
2021/05/27 05:59:07;;;;;;;1.20;1.10;;;;;;;12.05;83.40;95781.25;4955831;29;20224;-87
2021/05/27 06:01:33;;;;;;;1.40;1.30;;;;;;;12.14;83.19;95779.34;4956316;28;20570;-90
2021/05/27 06:03:59;;;;;;;1.43;1.20;;;;;;;12.14;83.91;95778.53;4956329;29;20806;-87
2021/05/27 06:06:25;;;;;;;1.10;1.00;;;;;;;12.21;82.53;95780.22;4954431;29;20240;-87
2021/05/27 06:08:51;;;;;;;1.10;1.00;;;;;;;12.19;81.79;95778.81;4955612;29;20205;-88
2021/05/27 06:11:18;;;;;;;0.80;0.80;;;;;;;12.00;80.30;95790.50;4956262;29;20201;-87
2021/05/27 06:13:45;;;;;;;1.67;0.90;;;;;;;12.01;80.23;95787.75;4953061;29;20236;-87
2021/05/27 06:16:14;;;;;;;0.80;0.80;;;;;;;12.06;81.39;95784.63;4945286;29;20672;-88
2021/05/27 06:18:41;;;;;;;1.07;1.00;;;;;;;12.02;80.67;95791.13;4952194;29;20623;-88
2021/05/27 06:21:07;;;;;;;1.23;1.10;;;;;;;12.00;80.10;95793.88;4952830;29;20208;-87
2021/05/27 06:23:35;;;;;;;1.90;1.13;;;;;;;11.99;81.40;95794.84;4954344;29;20607;-88
2021/05/27 06:26:05;;;;;;;1.30;1.20;;;;;;;12.10;80.28;95796.19;4952786;28;20201;-87
2021/05/27 06:28:32;;;;;;;1.00;0.90;;;;;;;12.09;80.47;95803.13;4950514;28;20896;-88
2021/05/27 06:30:58;;;;;;;1.00;1.00;;;;;;;12.02;80.49;95793.69;4954475;29;20259;-88
2021/05/27 06:33:24;;;;;;;1.17;1.07;;;;;;;12.04;80.60;95800.28;4952493;29;20241;-87
2021/05/27 06:35:50;;;;;;;1.07;1.00;;;;;;;12.09;80.09;95804.91;4952610;29;20212;-86
2021/05/27 06:38:18;;;;;;;2.70;1.10;;;;;;;12.22;80.06;95799.09;4953263;29;20204;-87
2021/05/27 06:40:47;;;;;;;1.63;1.10;;;;;;;12.33;79.69;95801.19;4953358;29;20196;-87
2021/05/27 06:43:13;;;;;;;1.20;1.10;;;;;;;12.37;79.25;95808.41;4948182;29;20232;-88
2021/05/27 06:45:40;;;;;;;0.90;0.90;;;;;;;12.28;78.74;95801.75;4955099;29;20260;-86
2021/05/27 06:48:07;;;;;;;1.13;1.03;;;;;;;12.29;79.38;95794.81;4953360;29;20271;-88
2021/05/27 06:50:34;;;;;;;2.20;1.20;;;;;;;12.37;80.00;95795.50;4957884;28;20205;-88
2021/05/27 06:53:15;;;;;;;1.20;1.10;;;;;;;12.46;79.81;95801.38;4953096;29;20799;-87
2021/05/27 06:55:42;;;;;;;1.93;1.10;;;;;;;12.48;81.09;95799.41;4952914;29;20299;-86
2021/05/27 06:58:15;;;;;;;1.20;1.10;;;;;;;12.46;80.02;95788.44;4952090;29;20201;-88
2021/05/27 07:00:45;;;;;;;1.20;1.03;;;;;;;12.43;78.82;95792.19;4953132;29;20207;-88
2021/05/27 07:03:12;;;;;;;1.20;1.10;;;;;;;12.35;78.33;95800.03;4952243;29;20644;-87
2021/05/27 07:05:41;;;;;;;1.50;1.00;;;;;;;12.18;77.94;95801.22;4950691;28;20204;-87
2021/05/27 07:08:08;;;;;;;2.00;1.20;;;;;;;12.25;80.92;95794.38;4950858;29;20599;-87
2021/05/27 07:10:35;;;;;;;1.20;1.10;;;;;;;12.25;79.24;95798.75;4951998;29;20314;-88
2021/05/27 07:13:07;;;;;;;1.13;1.00;;;;;;;12.37;79.20;95800.66;4950458;29;20239;-88
2021/05/27 07:15:36;;;;;;;1.43;1.00;;;;;;;12.44;78.72;95795.56;4952036;29;20320;-88
2021/05/27 07:18:03;;;;;;;1.17;1.07;;;;;;;12.33;77.17;95793.44;4951040;29;20205;-88
2021/05/27 07:20:38;;;;;;;1.47;1.30;;;;;;;12.44;78.33;95803.31;4950526;29;20228;-87
2021/05/27 07:23:19;;;;;;;1.10;1.00;;;;;;;12.45;79.20;95802.34;4951108;29;20600;-88
2021/05/27 07:26:04;;;;;;;;;;;;;;;;;;;;;
2021/05/27 07:28:33;;;;;;;1.50;1.10;;;;;;;12.50;79.34;95806.97;4946839;29;20204;-88
2021/05/27 07:31:00;;;;;;;1.13;1.00;;;;;;;12.45;80.52;95803.16;4950787;29;20289;-88
2021/05/27 07:33:27;;;;;;;1.10;1.00;;;;;;;12.40;80.77;95808.03;4952196;29;20654;-87
2021/05/27 07:35:53;;;;;;;2.40;1.50;;;;;;;12.44;82.16;95813.66;4952633;29;20239;-88
2021/05/27 07:38:19;;;;;;;1.33;1.13;;;;;;;12.49;81.39;95806.16;4952943;29;20205;-87
2021/05/27 07:40:46;;;;;;;1.07;1.07;;;;;;;12.51;81.28;95814.50;4952413;29;20212;-88
2021/05/27 07:43:12;;;;;;;1.40;1.30;;;;;;;12.52;82.14;95820.47;4952941;29;20248;-88
2021/05/27 07:45:39;;;;;;;1.67;1.30;;;;;;;12.43;81.54;95819.81;4953006;29;20653;-88
2021/05/27 07:48:05;;;;;;;1.63;1.40;;;;;;;12.50;80.44;95818.09;4951215;29;20205;-88
2021/05/27 07:50:34;;;;;;;1.40;1.30;;;;;;;12.56;80.32;95816.56;4957382;28;20204;-87
2021/05/27 07:53:00;;;;;;;3.40;1.50;;;;;;;12.58;80.22;95817.97;4950908;29;20221;-87
2021/05/27 07:55:26;;;;;;;1.13;1.10;;;;;;;12.64;79.43;95819.03;4951727;29;20556;-88
2021/05/27 07:57:55;;;;;;;0.93;0.93;;;;;;;12.71;76.06;95810.34;4951153;29;20290;-87
2021/05/27 08:00:21;;;;;;;1.20;1.10;;;;;;;12.68;75.51;95812.53;4950395;29;20277;-87
2021/05/27 08:02:48;;;;;;;1.30;1.00;;;;;;;12.67;75.03;95816.88;4950727;29;20716;-88
2021/05/27 08:05:15;;;;;;;1.90;1.20;;;;;;;12.78;74.31;95818.97;4953200;29;20267;-89
2021/05/27 08:07:42;;;;;;;1.43;1.20;;;;;;;12.82;74.16;95816.03;4951058;29;20197;-88
2021/05/27 08:10:10;;;;;;;2.07;1.00;;;;;;;12.82;75.01;95822.00;4953039;29;20200;-88
2021/05/27 08:12:36;;;;;;;1.17;1.07;;;;;;;12.92;75.13;95829.44;4953532;29;20221;-87
2021/05/27 08:15:05;;;;;;;1.87;1.10;;;;;;;12.84;73.97;95827.78;4953537;29;20217;-89
2021/05/27 08:17:31;;;;;;;1.33;1.10;;;;;;;12.79;73.77;95830.09;4953553;28;20263;-89
2021/05/27 08:19:57;;;;;;;1.07;1.00;;;;;;;12.79;72.78;95832.69;4952761;29;20233;-85
2021/05/27 08:22:26;;;;;;;0.80;0.80;;;;;;;12.78;71.56;95833.69;4951365;29;20243;-87
2021/05/27 08:24:57;;;;;;;1.43;1.00;;;;;;;12.74;71.41;95838.41;4951457;29;20216;-85
2021/05/27 08:27:23;;;;;;;1.70;1.00;;;;;;;12.58;70.21;95836.06;4949809;28;20208;-86
2021/05/27 08:29:49;;;;;;;0.97;0.90;;;;;;;12.49;69.89;95842.31;4947215;28;20228;-87
2021/05/27 08:32:15;;;;;;;1.10;1.00;;;;;;;12.55;70.62;95831.25;4947863;29;20236;-86
2021/05/27 08:34:43;;;;;;;1.07;0.90;;;;;;;12.58;71.42;95833.47;4949904;29;20197;-87
2021/05/27 08:37:09;;;;;;;1.23;1.10;;;;;;;12.66;73.61;95843.69;4943915;29;20644;-87
2021/05/27 08:39:37;;;;;;;1.63;0.90;;;;;;;12.70;74.74;95842.31;4950306;29;20213;-89
2021/05/27 08:42:33;;;;;;;;;;;;;;;;;;;;;
2021/05/27 08:45:02;;;;;;;1.40;1.10;;;;;;;12.72;72.63;95857.66;4943292;29;20231;-88
2021/05/27 08:47:29;;;;;;;1.13;1.00;;;;;;;12.61;69.51;95856.34;4948598;29;20621;-87
2021/05/27 08:49:58;;;;;;;2.23;0.90;;;;;;;12.74;69.61;95840.19;4949262;29;20247;-88
2021/05/27 08:52:25;;;;;;;0.83;0.83;;;;;;;12.77;70.26;95847.56;4949263;29;20213;-88
2021/05/27 08:54:51;;;;;;;2.43;1.07;;;;;;;12.89;69.44;95842.75;4950595;29;20195;-89
2021/05/27 08:57:18;;;;;;;1.30;1.20;;;;;;;12.97;68.40;95840.81;4950088;29;20217;-89
2021/05/27 08:59:45;;;;;;;4.03;1.10;;;;;;;13.02;67.79;95842.84;4949826;29;20664;-88
2021/05/27 09:02:12;;;;;;;1.33;1.10;;;;;;;12.99;68.17;95850.97;4948709;28;20227;-89
2021/05/27 09:04:39;;;;;;;1.20;1.00;;;;;;;13.03;69.19;95858.19;4945212;28;20201;-88
2021/05/27 09:07:07;;;;;;;1.33;1.20;;;;;;;13.00;69.00;95862.91;4948294;29;20382;-88
2021/05/27 09:09:54;;;;;;;1.20;1.03;;;;;;;13.04;70.05;95862.38;4949067;29;20204;-88
2021/05/27 09:12:34;;;;;;;1.20;1.07;;;;;;;13.09;68.62;95861.78;4950668;28;20280;-88
2021/05/27 09:15:05;;;;;;;1.33;1.10;;;;;;;13.20;71.25;95861.34;4949427;28;20217;-88
2021/05/27 09:17:44;;;;;;;2.40;0.97;;;;;;;13.33;70.18;95873.56;4950575;29;20220;-88
2021/05/27 09:20:17;;;;;;;1.77;1.00;;;;;;;13.17;68.10;95873.84;4949116;29;20235;-89
2021/05/27 09:23:14;;;;;;;1.43;1.20;;;;;;;13.17;68.29;95873.84;4949070;29;20750;-87
2021/05/27 09:25:42;;;;;;;1.03;1.03;;;;;;;13.25;70.06;95871.13;4948837;29;20208;-88
2021/05/27 09:28:16;;;;;;;1.57;1.10;;;;;;;13.25;70.96;95876.31;4948885;28;20221;-90
2021/05/27 09:30:45;;;;;;;3.00;1.17;;;;;;;13.27;68.20;95871.75;4949902;29;20208;-88
2021/05/27 09:33:32;;;;;;;1.93;1.10;;;;;;;13.32;68.05;95864.22;4950243;29;20317;-88
2021/05/27 09:36:06;;;;;;;1.50;1.07;;;;;;;13.44;68.01;95858.38;4951544;29;20216;-88
2021/05/27 09:38:34;;;;;;;1.17;1.07;;;;;;;13.37;65.89;95854.94;4949381;29;20204;-88
2021/05/27 09:41:14;;;;;;;1.70;1.00;;;;;;;13.46;67.14;95859.00;4951294;29;20692;-87
2021/05/27 09:43:42;;;;;;;1.77;0.90;;;;;;;13.44;65.16;95868.72;4951425;29;20252;-86
2021/05/27 09:46:09;;;;;;;1.93;1.20;;;;;;;13.55;65.46;95869.19;4952876;29;20263;-88
2021/05/27 09:48:36;;;;;;;1.93;1.63;;;;;;;13.42;65.11;95868.09;4950670;29;20204;-88
2021/05/27 09:51:02;;;;;;;2.03;1.30;;;;;;;13.24;63.05;95877.28;4952161;29;20235;-88
2021/05/27 09:53:31;;;;;;;1.67;1.57;;;;;;;13.16;63.64;95880.78;4952662;29;20760;-87
2021/05/27 09:55:59;;;;;;;1.30;1.20;;;;;;;13.09;64.58;95878.09;4951494;29;20205;-90
2021/05/27 09:58:25;;;;;;;2.60;2.23;;;;;;;13.10;64.99;95873.72;4948897;28;20198;-89
2021/05/27 10:00:53;;;;;;;1.40;1.30;;;;;;;13.13;66.36;95876.75;4950844;29;20228;-87
2021/05/27 10:03:39;;;;;;;1.70;1.27;;;;;;;13.09;69.33;95872.94;4949373;28;20295;-89
2021/05/27 10:06:08;;;;;;;1.57;1.40;;;;;;;13.17;68.95;95872.06;4951730;29;20213;-88
2021/05/27 10:08:54;;;;;;;1.93;1.40;;;;;;;13.23;69.70;95879.09;4952933;29;20211;-88
2021/05/27 10:11:21;;;;;;;1.30;1.20;;;;;;;13.34;71.15;95870.81;4952932;29;20280;-87
2021/05/27 10:13:47;;;;;;;1.67;1.30;;;;;;;13.44;69.36;95883.44;4951412;29;20236;-89
2021/05/27 10:16:16;;;;;;;1.63;1.53;;;;;;;13.74;68.89;95884.06;4952430;29;20222;-88
2021/05/27 10:18:43;;;;;;;1.30;1.20;;;;;;;13.90;67.67;95881.16;4952093;29;20269;-89
2021/05/27 10:21:11;;;;;;;1.40;1.27;;;;;;;14.11;68.03;95880.31;4952321;29;20217;-89
2021/05/27 10:23:38;;;;;;;1.90;1.30;;;;;;;14.31;66.56;95870.03;4951951;29;20237;-88
2021/05/27 10:26:05;;;;;;;1.50;1.07;;;;;;;14.07;63.16;95879.88;4951522;28;20212;-87
2021/05/27 10:28:33;;;;;;;1.63;1.10;;;;;;;13.88;63.41;95875.38;4951066;29;20334;-89
2021/05/27 10:30:59;;;;;;;1.37;1.10;;;;;;;13.76;62.98;95876.91;4952035;28;20268;-88
2021/05/27 10:33:26;;;;;;;1.30;1.20;;;;;;;13.68;64.37;95877.84;4951258;29;20243;-88
2021/05/27 10:35:57;;;;;;;1.20;1.00;;;;;;;13.77;64.94;95884.47;4948048;29;20209;-87
2021/05/27 10:38:47;;;;;;;3.03;1.13;;;;;;;13.80;63.25;95881.53;4950080;29;20219;-87
2021/05/27 10:41:16;;;;;;;1.03;0.93;;;;;;;13.74;62.11;95876.28;4953161;29;20205;-85
2021/05/27 10:44:08;;;;;;;1.00;0.90;;;;;;;13.56;60.14;95873.38;4950915;29;20256;-88
2021/05/27 10:47:15;;;;;;;2.10;0.90;;;;;;;13.62;59.48;95876.03;4951996;28;20694;-87
2021/05/27 10:49:56;;;;;;;1.00;1.00;;;;;;;14.01;60.11;95861.75;4951076;29;20724;-89
2021/05/27 10:52:39;;;;;;;1.63;0.90;;;;;;;14.43;58.47;95863.38;4948865;28;20252;-88
2021/05/27 10:55:08;;;;;;;1.27;1.10;;;;;;;14.64;58.64;95855.44;4949062;28;20267;-85
2021/05/27 10:57:46;;;;;;;2.27;1.10;;;;;;;14.58;57.52;95856.25;4951760;29;20209;-88
2021/05/27 11:00:48;;;;;;;1.17;1.00;;;;;;;14.58;56.96;95845.09;4951646;29;20287;-87
2021/05/27 11:03:42;;;;;;;2.00;1.10;;;;;;;14.49;55.93;95858.19;4953401;29;20220;-88
2021/05/27 11:06:27;;;;;;;1.63;1.10;;;;;;;14.58;57.13;95858.84;4954277;29;20213;-88
2021/05/27 11:09:31;;;;;;;1.33;0.97;;;;;;;14.55;56.35;95859.22;4951424;29;20720;-88
2021/05/27 11:12:09;;;;;;;1.67;1.00;;;;;;;14.46;57.56;95863.75;4949704;28;20627;-88
2021/05/27 11:14:39;;;;;;;2.83;1.00;;;;;;;14.45;57.38;95863.94;4947586;28;20219;-89
2021/05/27 11:17:19;;;;;;;1.10;1.00;;;;;;;14.23;57.65;95863.25;4949764;29;20216;-89
2021/05/27 11:19:49;;;;;;;1.70;1.03;;;;;;;14.00;58.38;95870.50;4950107;29;20232;-88
2021/05/27 11:22:53;;;;;;;1.03;1.00;;;;;;;13.89;59.21;95871.00;4948385;29;20228;-87
2021/05/27 11:25:25;;;;;;;0.93;0.90;;;;;;;13.92;60.17;95865.44;4919130;29;20882;-87
2021/05/27 11:27:53;;;;;;;1.20;1.10;;;;;;;13.78;59.62;95857.63;4950477;29;20212;-88
2021/05/27 11:30:20;;;;;;;1.30;1.20;;;;;;;13.78;60.21;95857.63;4951574;29;20771;-88
2021/05/27 11:32:49;;;;;;;1.40;1.30;;;;;;;13.78;61.44;95855.03;4950699;28;20248;-88
2021/05/27 11:35:16;;;;;;;2.60;1.40;;;;;;;13.84;61.40;95850.88;4951535;29;20235;-86
2021/05/27 11:37:43;;;;;;;1.30;1.20;;;;;;;13.88;60.91;95861.63;4951259;29;20213;-87
2021/05/27 11:40:13;;;;;;;2.30;1.23;;;;;;;13.91;61.14;95856.88;4949988;29;20220;-89
2021/05/27 11:42:39;;;;;;;1.33;1.20;;;;;;;13.96;60.94;95854.53;4950594;29;20229;-89
2021/05/27 11:45:07;;;;;;;1.10;1.00;;;;;;;13.96;60.91;95862.28;4948732;29;20213;-89
2021/05/27 11:47:34;;;;;;;1.00;0.90;;;;;;;13.88;58.73;95862.44;4949234;29;20201;-89
2021/05/27 11:50:01;;;;;;;1.10;1.00;;;;;;;13.96;58.88;95854.53;4951209;28;20209;-88